Time;durP1;ratioP1;P1;durP2;ratioP2;P2;SDS_P1;SDS_P2;PMS_P1;PMS_P2;Temp;Humidity;BMP_temperature;BMP_pressure;BME280_temperature;BME280_humidity;BME280_pressure;Samples;Min_cycle;Max_cycle;Signal;HPM_P1;HPM_P2
2022/12/16 00:00:28;;;;;;;49.25;30.02;;;;;;;;;;5065359;28;20119;-70
2022/12/16 00:02:57;;;;;;;47.45;29.00;;;;;;;;;;5058194;28;20045;-71
2022/12/16 00:05:23;;;;;;;45.38;28.70;;;;;;;;;;5064732;28;20084;-70
2022/12/16 00:07:50;;;;;;;50.88;29.02;;;;;;;;;;5053921;28;20049;-70
2022/12/16 00:10:17;;;;;;;45.65;27.90;;;;;;;;;;5069656;28;20077;-70
2022/12/16 00:12:43;;;;;;;48.53;28.45;;;;;;;;;;5064783;28;20053;-71
2022/12/16 00:15:10;;;;;;;48.83;30.00;;;;;;;;;;5064978;28;20061;-70
2022/12/16 00:17:38;;;;;;;52.55;29.77;;;;;;;;;;5064595;28;20140;-70
2022/12/16 00:20:05;;;;;;;53.75;29.88;;;;;;;;;;5064239;28;20053;-71
2022/12/16 00:22:31;;;;;;;50.90;29.58;;;;;;;;;;5065086;28;20055;-71
2022/12/16 00:24:57;;;;;;;47.70;29.42;;;;;;;;;;5063179;28;20518;-71
2022/12/16 00:27:24;;;;;;;49.92;30.60;;;;;;;;;;5063639;28;20048;-71
2022/12/16 00:29:50;;;;;;;58.75;32.08;;;;;;;;;;5064747;28;20049;-71
2022/12/16 00:32:17;;;;;;;57.90;32.13;;;;;;;;;;5064778;28;20057;-71
2022/12/16 00:34:43;;;;;;;59.75;30.17;;;;;;;;;;5066053;28;20147;-71
2022/12/16 00:37:10;;;;;;;50.20;30.40;;;;;;;;;;5067147;28;20128;-70
2022/12/16 00:39:36;;;;;;;51.88;30.65;;;;;;;;;;5058152;28;20050;-70
2022/12/16 00:42:03;;;;;;;44.90;27.42;;;;;;;;;;5046118;28;20058;-70
2022/12/16 00:44:29;;;;;;;46.70;29.23;;;;;;;;;;5064333;28;20057;-71
2022/12/16 00:46:56;;;;;;;43.58;29.10;;;;;;;;;;5064946;28;20421;-71
2022/12/16 00:49:22;;;;;;;43.85;27.52;;;;;;;;;;5056655;28;20054;-70
2022/12/16 00:51:48;;;;;;;46.38;27.15;;;;;;;;;;5051276;28;20569;-71
2022/12/16 00:54:15;;;;;;;46.90;28.67;;;;;;;;;;5063106;28;20057;-71
2022/12/16 00:56:41;;;;;;;44.63;27.50;;;;;;;;;;5063051;28;20049;-71
2022/12/16 00:59:08;;;;;;;45.28;26.58;;;;;;;;;;5046430;28;20427;-71
2022/12/16 01:01:34;;;;;;;41.72;26.65;;;;;;;;;;5062446;28;20619;-70
2022/12/16 01:04:01;;;;;;;46.38;26.02;;;;;;;;;;5061019;28;20060;-71
2022/12/16 01:06:27;;;;;;;42.20;27.02;;;;;;;;;;5049325;28;20157;-71
2022/12/16 01:08:54;;;;;;;39.50;25.50;;;;;;;;;;5061109;28;20045;-71
2022/12/16 01:11:20;;;;;;;43.35;27.23;;;;;;;;;;5063659;28;20107;-71
2022/12/16 01:13:49;;;;;;;44.10;26.88;;;;;;;;;;5047023;28;20052;-71
2022/12/16 01:16:17;;;;;;;49.58;27.88;;;;;;;;;;5063247;28;20049;-71
2022/12/16 01:18:44;;;;;;;41.45;27.45;;;;;;;;;;5065986;28;20056;-71
2022/12/16 01:21:11;;;;;;;49.28;27.98;;;;;;;;;;5057862;28;20588;-70
2022/12/16 01:23:37;;;;;;;45.72;28.10;;;;;;;;;;5060566;28;20565;-71
2022/12/16 01:26:04;;;;;;;42.97;27.88;;;;;;;;;;5062387;28;20053;-71
2022/12/16 01:28:31;;;;;;;44.08;28.58;;;;;;;;;;5060365;28;20053;-71
2022/12/16 01:31:00;;;;;;;44.10;26.95;;;;;;;;;;5049297;28;20136;-70
2022/12/16 01:33:31;;;;;;;50.13;30.58;;;;;;;;;;5065788;28;20076;-70
2022/12/16 01:35:59;;;;;;;45.70;28.20;;;;;;;;;;5063064;28;20045;-71
2022/12/16 01:38:25;;;;;;;52.63;28.48;;;;;;;;;;5050019;28;20093;-70
2022/12/16 01:40:52;;;;;;;49.95;27.50;;;;;;;;;;5061048;28;20095;-71
2022/12/16 01:43:23;;;;;;;43.78;25.98;;;;;;;;;;5062706;28;20059;-70
2022/12/16 01:45:50;;;;;;;48.30;28.52;;;;;;;;;;5063898;28;20060;-70
2022/12/16 01:48:33;;;;;;;40.00;25.48;;;;;;;;;;5064537;28;20053;-70
2022/12/16 01:51:02;;;;;;;43.13;25.40;;;;;;;;;;5045497;28;20477;-71
2022/12/16 01:53:29;;;;;;;43.00;24.77;;;;;;;;;;5058348;28;20049;-71
2022/12/16 01:55:57;;;;;;;40.80;26.20;;;;;;;;;;5061556;28;20049;-71
2022/12/16 01:58:26;;;;;;;46.33;24.17;;;;;;;;;;5062690;28;20141;-71
2022/12/16 02:00:52;;;;;;;38.95;24.40;;;;;;;;;;5056064;28;20057;-71
2022/12/16 02:03:20;;;;;;;38.17;24.48;;;;;;;;;;5053228;28;20536;-70
2022/12/16 02:05:47;;;;;;;35.38;24.75;;;;;;;;;;5054978;28;20045;-71
2022/12/16 02:08:19;;;;;;;36.00;22.50;;;;;;;;;;5061238;28;20545;-71
2022/12/16 02:10:51;;;;;;;34.83;22.08;;;;;;;;;;5048977;28;20111;-71
2022/12/16 02:13:23;;;;;;;33.53;19.98;;;;;;;;;;5062268;28;20106;-70
2022/12/16 02:15:59;;;;;;;28.77;18.23;;;;;;;;;;5058162;28;20116;-71
2022/12/16 02:18:38;;;;;;;26.80;15.80;;;;;;;;;;5062366;28;20594;-70
2022/12/16 02:21:07;;;;;;;23.58;15.30;;;;;;;;;;5063570;28;20164;-71
2022/12/16 02:23:34;;;;;;;22.65;14.95;;;;;;;;;;5060668;28;20050;-70
2022/12/16 02:26:14;;;;;;;27.48;14.13;;;;;;;;;;5050469;28;20052;-71
2022/12/16 02:28:53;;;;;;;29.40;16.13;;;;;;;;;;5064946;28;20041;-70
2022/12/16 02:31:26;;;;;;;16.80;10.27;;;;;;;;;;5050482;28;20427;-71
2022/12/16 02:34:00;;;;;;;25.55;16.17;;;;;;;;;;5054987;28;20061;-70
2022/12/16 02:36:35;;;;;;;26.58;15.70;;;;;;;;;;5062264;28;20046;-71
2022/12/16 02:39:19;;;;;;;22.10;14.75;;;;;;;;;;5050472;28;20049;-71
2022/12/16 02:41:49;;;;;;;21.83;14.98;;;;;;;;;;5047069;28;20440;-70
2022/12/16 02:44:16;;;;;;;24.38;14.75;;;;;;;;;;5062550;28;20555;-71
2022/12/16 02:46:51;;;;;;;23.63;15.43;;;;;;;;;;5061804;28;20519;-71
2022/12/16 02:49:17;;;;;;;24.00;13.75;;;;;;;;;;5059474;28;20057;-70
2022/12/16 02:51:44;;;;;;;28.33;14.30;;;;;;;;;;5043855;28;20045;-71
2022/12/16 02:54:11;;;;;;;24.92;15.35;;;;;;;;;;5054324;28;20064;-71
2022/12/16 02:56:40;;;;;;;24.45;14.90;;;;;;;;;;5057415;28;20057;-71
2022/12/16 02:59:07;;;;;;;22.60;14.60;;;;;;;;;;5059179;28;20531;-70
2022/12/16 03:01:56;;;;;;;24.17;14.85;;;;;;;;;;5070629;28;20152;-71
2022/12/16 03:04:26;;;;;;;26.85;15.70;;;;;;;;;;5066914;28;20079;-70
2022/12/16 03:06:53;;;;;;;22.52;14.43;;;;;;;;;;5062805;28;20516;-70
2022/12/16 03:09:22;;;;;;;23.02;14.27;;;;;;;;;;5062527;28;20079;-70
2022/12/16 03:11:49;;;;;;;22.42;15.07;;;;;;;;;;5063337;28;20053;-71
2022/12/16 03:14:17;;;;;;;26.33;15.98;;;;;;;;;;5059709;28;20491;-71
2022/12/16 03:16:44;;;;;;;25.50;15.10;;;;;;;;;;5049591;28;20050;-71
2022/12/16 03:19:11;;;;;;;22.75;14.25;;;;;;;;;;5063620;28;20144;-70
2022/12/16 03:21:48;;;;;;;25.92;14.27;;;;;;;;;;5070333;28;20054;-71
2022/12/16 03:24:14;;;;;;;25.73;14.35;;;;;;;;;;5068549;28;20577;-71
2022/12/16 03:27:01;;;;;;;22.75;14.50;;;;;;;;;;5069444;28;20060;-71
2022/12/16 03:29:46;;;;;;;23.17;14.57;;;;;;;;;;5057354;28;20049;-71
2022/12/16 03:32:16;;;;;;;24.60;15.45;;;;;;;;;;5068874;28;20046;-71
2022/12/16 03:34:59;;;;;;;24.50;14.23;;;;;;;;;;5049823;28;20049;-71
2022/12/16 03:37:29;;;;;;;22.00;14.20;;;;;;;;;;5049456;28;20060;-71
2022/12/16 03:39:57;;;;;;;23.67;16.23;;;;;;;;;;5058994;28;20063;-70
2022/12/16 03:42:24;;;;;;;26.20;15.18;;;;;;;;;;5068534;28;20135;-71
2022/12/16 03:44:51;;;;;;;23.75;15.35;;;;;;;;;;5061981;28;20045;-71
2022/12/16 03:47:17;;;;;;;22.50;14.20;;;;;;;;;;5059387;28;20059;-70
2022/12/16 03:49:49;;;;;;;29.10;15.68;;;;;;;;;;5067915;28;20049;-71
2022/12/16 03:52:15;;;;;;;22.67;14.25;;;;;;;;;;5068620;28;20045;-70
2022/12/16 03:54:41;;;;;;;25.63;15.73;;;;;;;;;;5068840;28;20053;-71
2022/12/16 03:57:08;;;;;;;25.20;16.25;;;;;;;;;;5067979;28;20467;-71
2022/12/16 03:59:40;;;;;;;21.30;14.25;;;;;;;;;;5050205;28;20062;-70
2022/12/16 04:02:07;;;;;;;28.70;15.60;;;;;;;;;;5057357;28;20057;-71
2022/12/16 04:04:34;;;;;;;22.73;16.08;;;;;;;;;;5057378;28;20052;-71
2022/12/16 04:09:45;;;;;;;25.80;15.93;;;;;;;;;;5067369;28;20466;-70
2022/12/16 04:26:06;;;;;;;;;;;;;;;;;;5065231;28;20042;-70
2022/12/16 04:28:32;;;;;;;28.52;15.00;;;;;;;;;;5056666;28;42297;-71
2022/12/16 04:30:59;;;;;;;23.20;16.25;;;;;;;;;;5067455;28;20607;-70
